createdAt,value
2022-08-24T00:03:12.656Z,3.07
2022-08-24T00:14:19.448Z,3.04
2022-08-24T00:25:19.259Z,3.06
2022-08-24T00:35:56.401Z,3.05
2022-08-24T00:46:32.976Z,3.04
2022-08-24T00:57:31.184Z,3.04
2022-08-24T01:08:08.685Z,3.03
2022-08-24T01:19:07.809Z,3.03
2022-08-24T01:30:05.193Z,3.03
2022-08-24T01:41:06.601Z,3.03
2022-08-24T01:52:07.916Z,3.03
2022-08-24T02:03:10.245Z,3.03
2022-08-24T02:14:10.761Z,3.03
2022-08-24T02:25:11.254Z,3.02
2022-08-24T02:36:25.492Z,3.02
2022-08-24T02:47:19.463Z,3.02
2022-08-24T02:58:21.124Z,3.02
2022-08-24T03:09:23.579Z,3.02
2022-08-24T03:20:23.691Z,3.01
2022-08-24T03:31:25.614Z,3.01
2022-08-24T03:42:29.041Z,3.01
2022-08-24T03:53:29.923Z,3.00
2022-08-24T04:04:31.947Z,3.00
2022-08-24T04:15:34.050Z,3.00
2022-08-24T04:26:44.516Z,3.00
2022-08-24T04:37:40.114Z,3.00
2022-08-24T04:48:40.227Z,3.00
2022-08-24T04:59:43.301Z,3.01
2022-08-24T05:10:45.982Z,3.02
2022-08-24T05:21:44.608Z,3.03
2022-08-24T05:32:22.401Z,3.02
2022-08-24T05:43:25.238Z,3.03
2022-08-24T05:54:25.870Z,3.03
2022-08-24T06:05:27.940Z,3.04
2022-08-24T06:16:31.354Z,3.05
2022-08-24T06:27:34.005Z,3.06
2022-08-24T06:38:36.987Z,3.08
2022-08-24T06:49:38.441Z,3.09
2022-08-24T07:00:37.359Z,3.09
2022-08-24T07:11:39.781Z,3.11
2022-08-24T07:22:41.115Z,3.12
2022-08-24T07:33:39.828Z,3.13
2022-08-24T07:44:38.584Z,3.15
2022-08-24T07:55:28.539Z,3.19
2022-08-24T08:06:06.326Z,3.22
2022-08-24T08:16:49.705Z,3.25
2022-08-24T08:27:51.447Z,3.26
2022-08-24T08:38:47.634Z,3.27
2022-08-24T08:49:30.606Z,3.28
2022-08-24T09:00:28.956Z,3.33
2022-08-24T09:11:30.275Z,3.36
2022-08-24T09:22:27.905Z,3.32
2022-08-24T09:33:27.322Z,3.31
2022-08-24T09:44:27.516Z,3.31
2022-08-24T09:55:28.873Z,3.31
2022-08-24T10:06:02.743Z,3.33
2022-08-24T10:17:01.953Z,3.31
2022-08-24T10:27:35.681Z,3.33
2022-08-24T10:38:37.265Z,3.33
2022-08-24T10:49:39.236Z,3.33
2022-08-24T11:00:38.640Z,3.33
2022-08-24T11:11:40.597Z,3.34
2022-08-24T11:22:30.194Z,3.33
2022-08-24T11:33:29.769Z,3.34
2022-08-24T11:44:32.770Z,3.39
2022-08-24T11:55:41.669Z,3.36
2022-08-24T12:06:32.514Z,3.36
2022-08-24T12:17:29.064Z,3.34
2022-08-24T12:28:16.562Z,3.33
2022-08-24T12:39:19.131Z,3.33
2022-08-24T12:50:16.691Z,3.33
2022-08-24T13:01:15.535Z,3.34
2022-08-24T13:12:11.639Z,3.33
2022-08-24T13:23:10.882Z,3.33
2022-08-24T13:33:51.144Z,3.33
2022-08-24T13:44:54.585Z,3.34
2022-08-24T13:55:55.195Z,3.34
2022-08-24T14:06:51.229Z,3.39
2022-08-24T14:17:46.290Z,3.36
2022-08-24T14:28:50.909Z,3.35
2022-08-24T14:39:59.446Z,3.34
2022-08-24T14:50:59.430Z,3.34
2022-08-24T15:01:51.517Z,3.36
2022-08-24T15:12:46.727Z,3.34
2022-08-24T15:23:20.040Z,3.32
2022-08-24T15:34:13.359Z,3.31
2022-08-24T15:44:46.861Z,3.29
2022-08-24T15:55:45.547Z,3.29
2022-08-24T16:06:38.245Z,3.30
2022-08-24T16:17:13.184Z,3.28
2022-08-24T16:28:12.393Z,3.28
2022-08-24T16:39:08.326Z,3.27
2022-08-24T16:49:58.807Z,3.26
2022-08-24T17:00:33.296Z,3.25
2022-08-24T17:11:33.683Z,3.25
2022-08-24T17:22:34.435Z,3.25
2022-08-24T17:33:34.875Z,3.24
2022-08-24T17:44:33.341Z,3.23
2022-08-24T17:55:39.047Z,3.21
2022-08-24T18:06:37.478Z,3.22
2022-08-24T18:17:13.119Z,3.21
2022-08-24T18:28:07.743Z,3.21
2022-08-24T18:39:08.494Z,3.20
2022-08-24T18:50:03.892Z,3.20
2022-08-24T19:01:05.125Z,3.19
2022-08-24T19:12:04.620Z,3.19
2022-08-24T19:23:04.218Z,3.19
2022-08-24T19:34:06.430Z,3.19
2022-08-24T19:45:06.216Z,3.18
2022-08-24T19:56:08.117Z,3.18
2022-08-24T20:06:43.510Z,3.16
2022-08-24T20:17:41.927Z,3.16
2022-08-24T20:28:41.967Z,3.15
2022-08-24T20:39:42.632Z,3.15
2022-08-24T20:50:44.815Z,3.15
2022-08-24T21:01:45.761Z,3.15
2022-08-24T21:12:45.407Z,3.15
2022-08-24T21:23:47.433Z,3.14
2022-08-24T21:34:46.127Z,3.14
2022-08-24T21:45:46.373Z,3.13
2022-08-24T21:56:45.542Z,3.13
2022-08-24T22:07:45.429Z,3.13
2022-08-24T22:18:44.046Z,3.12
2022-08-24T22:29:44.536Z,3.12
2022-08-24T22:40:45.945Z,3.11
2022-08-24T22:51:46.498Z,3.11
2022-08-24T23:02:43.494Z,3.11
2022-08-24T23:13:42.153Z,3.10
2022-08-24T23:24:39.690Z,3.10
2022-08-24T23:35:38.342Z,3.09
2022-08-24T23:46:15.305Z,3.08
2022-08-24T23:57:02.305Z,3.08
